AirNav   Phillips 66 Aviation Fuel
 
 378 users online  

C91 Dowagiac Municipal Airport
Dowagiac, Michigan, USA

GOING TO DOWAGIAC?


FAA INFORMATION EFFECTIVE 04 JANUARY 2018

Location

FAA Identifier: C91
Lat/Long: 41-59-34.5000N / 086-07-41.8000W
41-59.575000N / 086-07.696667W
41.9929167 / -86.1282778
(estimated)
Elevation: 747.3 ft. / 227.8 m (surveyed)
Variation: 05W (2010)
From city: 1 mile NW of DOWAGIAC, MI
Time zone: UTC -5 (UTC -4 during Daylight Saving Time)
Zip code: 49047

Airport Operations

Airport use: Open to the public
Activation date: 07/1974
Control tower: no
ARTCC: CHICAGO CENTER
FSS: LANSING FLIGHT SERVICE STATION
NOTAMs facility: LAN (NOTAM-D service available)
Attendance: UNATNDD
Pattern altitude: 1547.3 ft. MSL
Wind indicator: lighted
Segmented circle: yes
Lights: ACTVT MIRL RY 09/27; PAPI RYS 09 & RY 27; & REIL RYS 09 & 27 - CTAF.
Beacon: white-green (lighted land airport)
Operates sunset to sunrise.

Airport Communications

CTAF/UNICOM: 122.8
SOUTH BEND APPROACH: 118.55
SOUTH BEND DEPARTURE: 118.55
WX ASOS at BEH (16 nm NW): 121.55 (269-925-9008)
WX AWOS-3 at EKM (17 nm S): 124.475 (574-264-9002)
WX ASOS at SBN (19 nm SW): PHONE 574-251-2652
  • APCH & DEP CTL SVC PROVIDED BY CHICAGO ARTCC ON 127.55/263.1 (GOSHEN RCAG) WHEN SOUTH BEND APCH CTL CLSD.

Nearby radio navigation aids

VOR radial/distance  VOR name  Freq  Var
ELXr182/9.1KEELER VOR/DME116.6000E
GIJr032/15.9GIPPER VORTAC115.4000E
PMMr182/28.4PULLMAN VOR/DME112.1000E
GSHr351/28.4GOSHEN VORTAC113.7000E
AZOr241/29.5KALAMAZOO VOR/DME109.0001W

 
NDB name  Hdg/Dist  Freq  Var  ID
MALLY138/11.539704WBE -... .
STURGIS293/32.838204WIRS .. .-. ...

Airport Services

Fuel available: 100LL
SELF SVC FUEL AVBL 24 HR.
Parking: tiedowns

Runway Information

Runway 9/27

Dimensions: 4700 x 100 ft. / 1433 x 30 m
Surface: asphalt, in fair condition
Weight bearing capacity: 
Single wheel: 30.0
Double wheel: 60.0
Runway edge lights: medium intensity
RUNWAY 9  RUNWAY 27
Latitude: 41-59.621735N41-59.620635N
Longitude: 086-08.343092W086-07.305887W
Elevation: 735.8 ft.746.7 ft.
Gradient: 0.3%0.3%
Traffic pattern: leftright
Runway heading: 095 magnetic, 090 true275 magnetic, 270 true
Markings: nonprecision, in good conditionnonprecision, in good condition
Visual slope indicator: 4-light PAPI on left (3.00 degrees glide path)4-light PAPI on left (3.00 degrees glide path)
Runway end identifier lights: yesyes
Touchdown point: yes, no lightsyes, no lights
Obstructions: 74 ft. trees, 1584 ft. from runway, 190 ft. right of centerline, 19:1 slope to clear70 ft. trees, 1600 ft. from runway, 275 ft. left of centerline, 20:1 slope to clear

Runway 4/22

Dimensions: 2176 x 100 ft. / 663 x 30 m
Surface: turf, in fair condition
Runway edge markings: RWY 04 /22 & DSPLD THLD MARKED WITH 3 FT YELLOW CONES.
RUNWAY 4  RUNWAY 22
Latitude: 41-59.344720N41-59.603717N
Longitude: 086-07.584792W086-07.252948W
Elevation: 742.5 ft.746.8 ft.
Traffic pattern: leftright
Runway heading: 049 magnetic, 044 true229 magnetic, 224 true
Displaced threshold: no388 ft.
Runway end identifier lights: nono
Touchdown point: yes, no lightsyes, no lights
Obstructions: 38 ft. trees, 228 ft. from runway, 155 ft. right of centerline, 6:1 slope to clear
APCH RATIO 20:1 BASED ON STRAIGHT OUT.
75 ft. tree, 900 ft. from runway, 180 ft. right of centerline, 12:1 slope to clear
APCH RATIO 20:1 AT DSLPD THLD.

Airport Ownership and Management from official FAA records

Ownership: Publicly-owned
Owner: CITY OF DOWAGIAC
PO BOX 430, 241 SOUTH FRONT
DOWAGIAC, MI 49047
Phone 269-782-8530
Manager: OSCAR AZEVEDO
P.O. BOX 430, 241 S. FRONT ST.
DOWAGIAC, MI 49047
Phone 269-782-3805

Airport Operational Statistics

Aircraft based on the field: 22
Single engine airplanes: 20
Multi engine airplanes: 2
    
Aircraft operations: avg 69/week *
50% transient general aviation
50% local general aviation
* for 12-month period ending 31 December 2015

Additional Remarks

DEER ON & INVOF ARPT.
MODEL RDO-CTL ACFT OPR E SIDE OF RY 04/22.
ADMIN. BLDG ACCESS, DEPRESS V, THEN III-II SIMULTANEOUS, THEN I.

Instrument Procedures

NOTE: All procedures below are presented as PDF files. If you need a reader for these files, you should download the free Adobe Reader.

NOT FOR NAVIGATION. Please procure official charts for flight.
FAA instrument procedures published for use between 4 January 2018 at 0901Z and 1 February 2018 at 0900Z.

 
IAPs - Instrument Approach Procedures
RNAV (GPS) RWY 09   download (196KB)
RNAV (GPS) RWY 27   download (194KB)
VOR-A   download (159KB)
NOTE: Special Take-Off Minimums/Departure Procedures apply   download (122KB)

Other nearby airports with instrument procedures:

3TR - Jerry Tyler Memorial Airport (10 nm SW)
C20 - Andrews University Airpark (11 nm W)
KBEH - Southwest Michigan Regional Airport (16 nm NW)
KEKM - Elkhart Municipal Airport (17 nm S)
KSBN - South Bend International Airport (19 nm SW)
 
Loc | Ops | Rwys | IFR | FBO | Links
Com | Nav | Svcs | Stats | Notes


 
Area around C91 (Dowagiac Municipal Airport)
 
Road maps at: MapQuest Bing Google
 
Aerial photo
WARNING: Photo may not be current or correct
Aerial photo of C91 (Dowagiac Municipal Airport)
Photo by Nate Enyedi
Photo taken 03-Nov-2007

Do you have a better or more recent aerial photo of Dowagiac Municipal Airport that you would like to share? If so, please send us your photo.

 
Sectional chart

 
Airport distance calculator
Flying to Dowagiac Municipal Airport? Find the distance to fly.

From to C91

Sunrise and sunset
Times for 21-Jan-2018
 Local
(UTC-5)
 Zulu
(UTC)
Morning civil twilight07:3712:37
Sunrise08:0813:08
Sunset17:4422:44
Evening civil twilight18:1523:15

Current date and time
Zulu (UTC)  21-Jan-2018 11:43:04
Local (UTC-5)  21-Jan-2018 06:43:04
 
METAR
KBEH 
15nm NW 
211053Z AUTO 13006KT 7SM OVC041 03/01 A2999 RMK AO2 SLP162 T00330011
KEKM 
18nm S 
202248Z 21004KT 10SM CLR 04/00 A3000 RMK LAST
KSBN 
19nm SW 
211054Z 16004KT 5SM BR OVC004 03/02 A3002 RMK AO2 SLP174 T00280017
KLWA 
22nm N 
211115Z AUTO 00000KT 7SM OVC038 03/01 A2999 RMK AO2 T00290010
KHAI 
24nm E 
211115Z AUTO 18003KT 4SM BR SCT006 OVC034 02/02 A3003 RMK AO2 T00230017
KAZO 
30nm NE 
211123Z 16004KT 6SM BR OVC031 03/01 A3002 RMK AO2 T00280011
TAF
KSBN 
19nm SW 
210538Z 2106/2206 19005KT 6SM BR OVC015 FM210900 19005KT 3SM BR OVC007 FM211200 17005KT 1SM -DZ BR OVC005 FM211700 17007KT 4SM -DZ BR OVC007 FM220300 17005KT 1SM -RA BR OVC004
NOTAMs
Click for the latest NOTAMs
NOTAMs are issued by the DoD/FAA and will open in a separate window not controlled by AirNav.

 

 
 

FBO, Fuel Providers, and Aircraft Ground Support

  
 Business Name 
 
 Contact 
 
 Services / Description 
 
Fuel Prices
 
Comments
  
Dowagiac Municipal Airport 269-782-3805
no information available

If you are affiliated with Dowagiac Municipal Airport and would like to show here your services, contact info, web link, logo, and more, click here
100LL
SS $3.99 
 Updated 18-Jan-2018
 
   1 read write
SS=Self service
Update Fuel Prices
 

Would you like to see your business listed on this page?

 If your business provides an interesting product or service to pilots, flight crews, aircraft, or users of the Dowagiac Municipal Airport, you should consider listing it here.  To start the listing process, click on the button below
 
Add a business
 

Other Pages about Dowagiac Municipal Airport

Page from the Michigan Airport Directory (PDF)
 
Update a link
 
Copyright © AirNav, LLC. All rights reserved. Privacy Policy  Contact